sensor_id;sensor_type;location;lat;lon;timestamp;temperature;humidity
69626;DHT22;56847;51.984;5.088;2022-07-18T04:41:52;20.70;55.00
69626;DHT22;56847;51.984;5.088;2022-07-18T04:44:19;20.70;54.80
69626;DHT22;56847;51.984;5.088;2022-07-18T04:46:46;20.70;54.70
69626;DHT22;56847;51.984;5.088;2022-07-18T04:49:13;20.70;54.70
69626;DHT22;56847;51.984;5.088;2022-07-18T04:51:40;20.80;54.60
69626;DHT22;56847;51.984;5.088;2022-07-18T04:54:07;20.80;54.40
69626;DHT22;56847;51.984;5.088;2022-07-18T04:56:35;20.90;54.20
69626;DHT22;56847;51.984;5.088;2022-07-18T04:59:02;20.90;54.10
69626;DHT22;56847;51.984;5.088;2022-07-18T05:01:29;20.90;54.00
69626;DHT22;56847;51.984;5.088;2022-07-18T05:03:56;21.00;53.90
69626;DHT22;56847;51.984;5.088;2022-07-18T05:06:22;21.00;53.80
69626;DHT22;56847;51.984;5.088;2022-07-18T05:08:49;21.00;53.80
69626;DHT22;56847;51.984;5.088;2022-07-18T05:11:17;21.00;53.80
69626;DHT22;56847;51.984;5.088;2022-07-18T05:13:44;21.10;53.70
69626;DHT22;56847;51.984;5.088;2022-07-18T05:16:11;21.10;53.60
69626;DHT22;56847;51.984;5.088;2022-07-18T05:18:38;21.10;53.50
69626;DHT22;56847;51.984;5.088;2022-07-18T05:21:05;21.20;53.50
69626;DHT22;56847;51.984;5.088;2022-07-18T05:23:32;21.20;53.40
69626;DHT22;56847;51.984;5.088;2022-07-18T05:25:59;21.30;53.30
69626;DHT22;56847;51.984;5.088;2022-07-18T05:28:26;21.30;53.20
69626;DHT22;56847;51.984;5.088;2022-07-18T05:30:53;21.40;53.10
69626;DHT22;56847;51.984;5.088;2022-07-18T05:33:21;21.40;53.10
69626;DHT22;56847;51.984;5.088;2022-07-18T05:35:48;21.40;53.00
69626;DHT22;56847;51.984;5.088;2022-07-18T05:38:15;21.50;52.90
69626;DHT22;56847;51.984;5.088;2022-07-18T05:40:42;21.60;52.70
69626;DHT22;56847;51.984;5.088;2022-07-18T05:43:09;21.60;52.70
69626;DHT22;56847;51.984;5.088;2022-07-18T05:45:36;21.70;52.60
69626;DHT22;56847;51.984;5.088;2022-07-18T05:48:11;21.80;52.40
69626;DHT22;56847;51.984;5.088;2022-07-18T05:50:38;21.90;52.30
69626;DHT22;56847;51.984;5.088;2022-07-18T05:53:08;22.00;52.20
69626;DHT22;56847;51.984;5.088;2022-07-18T05:55:35;22.10;52.10
69626;DHT22;56847;51.984;5.088;2022-07-18T05:58:02;22.20;51.80
69626;DHT22;56847;51.984;5.088;2022-07-18T06:00:32;22.30;51.60
69626;DHT22;56847;51.984;5.088;2022-07-18T06:02:59;22.50;51.80
69626;DHT22;56847;51.984;5.088;2022-07-18T06:05:28;23.30;51.30
69626;DHT22;56847;51.984;5.088;2022-07-18T06:07:55;24.30;49.50
69626;DHT22;56847;51.984;5.088;2022-07-18T06:10:24;24.70;48.00
69626;DHT22;56847;51.984;5.088;2022-07-18T06:12:51;24.50;47.80
69626;DHT22;56847;51.984;5.088;2022-07-18T06:15:19;24.30;48.10
69626;DHT22;56847;51.984;5.088;2022-07-18T06:17:46;24.10;48.50
69626;DHT22;56847;51.984;5.088;2022-07-18T06:20:13;23.90;48.90
69626;DHT22;56847;51.984;5.088;2022-07-18T06:22:40;23.90;49.20
69626;DHT22;56847;51.984;5.088;2022-07-18T06:25:07;23.90;49.40
69626;DHT22;56847;51.984;5.088;2022-07-18T06:27:34;23.90;49.30
69626;DHT22;56847;51.984;5.088;2022-07-18T06:30:03;23.90;49.30
69626;DHT22;56847;51.984;5.088;2022-07-18T06:32:31;24.00;49.20
69626;DHT22;56847;51.984;5.088;2022-07-18T06:34:58;24.10;49.10
69626;DHT22;56847;51.984;5.088;2022-07-18T06:37:25;24.20;48.90
69626;DHT22;56847;51.984;5.088;2022-07-18T06:39:52;24.30;48.80
69626;DHT22;56847;51.984;5.088;2022-07-18T06:42:20;24.40;48.50
69626;DHT22;56847;51.984;5.088;2022-07-18T06:44:49;24.50;48.50
69626;DHT22;56847;51.984;5.088;2022-07-18T06:47:16;24.60;48.30
69626;DHT22;56847;51.984;5.088;2022-07-18T06:49:43;24.80;48.10
69626;DHT22;56847;51.984;5.088;2022-07-18T06:52:09;24.90;48.00
69626;DHT22;56847;51.984;5.088;2022-07-18T06:54:38;25.00;47.70
69626;DHT22;56847;51.984;5.088;2022-07-18T06:57:07;25.00;47.30
69626;DHT22;56847;51.984;5.088;2022-07-18T06:59:36;25.10;47.30
69626;DHT22;56847;51.984;5.088;2022-07-18T07:02:04;25.20;47.20
69626;DHT22;56847;51.984;5.088;2022-07-18T07:04:31;25.40;47.10
69626;DHT22;56847;51.984;5.088;2022-07-18T07:06:58;25.50;46.90
69626;DHT22;56847;51.984;5.088;2022-07-18T07:09:25;25.60;46.70
69626;DHT22;56847;51.984;5.088;2022-07-18T07:11:56;25.70;46.50
69626;DHT22;56847;51.984;5.088;2022-07-18T07:14:26;25.80;46.30
69626;DHT22;56847;51.984;5.088;2022-07-18T07:16:54;25.90;46.20
69626;DHT22;56847;51.984;5.088;2022-07-18T07:19:23;26.00;45.80
69626;DHT22;56847;51.984;5.088;2022-07-18T07:21:50;26.10;45.70
69626;DHT22;56847;51.984;5.088;2022-07-18T07:24:17;26.20;45.80
69626;DHT22;56847;51.984;5.088;2022-07-18T07:26:44;26.30;45.70
69626;DHT22;56847;51.984;5.088;2022-07-18T07:29:11;26.40;45.80
69626;DHT22;56847;51.984;5.088;2022-07-18T07:31:41;26.50;45.60
69626;DHT22;56847;51.984;5.088;2022-07-18T07:34:12;26.70;45.30
69626;DHT22;56847;51.984;5.088;2022-07-18T07:36:39;26.70;45.40
69626;DHT22;56847;51.984;5.088;2022-07-18T07:39:06;26.80;45.30
69626;DHT22;56847;51.984;5.088;2022-07-18T07:41:35;27.00;45.20
69626;DHT22;56847;51.984;5.088;2022-07-18T07:44:02;27.10;44.90
69626;DHT22;56847;51.984;5.088;2022-07-18T07:46:30;27.20;44.80
69626;DHT22;56847;51.984;5.088;2022-07-18T07:48:57;27.40;44.50
69626;DHT22;56847;51.984;5.088;2022-07-18T07:51:25;27.50;44.30
69626;DHT22;56847;51.984;5.088;2022-07-18T07:54:01;27.60;44.10
69626;DHT22;56847;51.984;5.088;2022-07-18T07:56:36;27.80;44.10
69626;DHT22;56847;51.984;5.088;2022-07-18T07:59:04;27.90;44.00
69626;DHT22;56847;51.984;5.088;2022-07-18T08:01:33;28.00;43.70
69626;DHT22;56847;51.984;5.088;2022-07-18T08:04:01;28.10;43.40
69626;DHT22;56847;51.984;5.088;2022-07-18T08:06:28;28.20;43.40
69626;DHT22;56847;51.984;5.088;2022-07-18T08:08:54;28.30;43.40
69626;DHT22;56847;51.984;5.088;2022-07-18T08:11:25;28.40;43.00
69626;DHT22;56847;51.984;5.088;2022-07-18T08:13:52;28.50;42.50
69626;DHT22;56847;51.984;5.088;2022-07-18T08:16:21;28.60;42.50
69626;DHT22;56847;51.984;5.088;2022-07-18T08:18:48;28.80;42.10
69626;DHT22;56847;51.984;5.088;2022-07-18T08:21:15;28.90;41.80
69626;DHT22;56847;51.984;5.088;2022-07-18T08:23:42;29.00;41.80
69626;DHT22;56847;51.984;5.088;2022-07-18T08:26:09;29.10;41.70
69626;DHT22;56847;51.984;5.088;2022-07-18T08:28:36;29.20;41.40
69626;DHT22;56847;51.984;5.088;2022-07-18T08:31:04;29.40;41.20
69626;DHT22;56847;51.984;5.088;2022-07-18T08:33:31;29.60;40.80
69626;DHT22;56847;51.984;5.088;2022-07-18T08:35:58;29.70;40.60
69626;DHT22;56847;51.984;5.088;2022-07-18T08:38:25;29.80;40.10
69626;DHT22;56847;51.984;5.088;2022-07-18T08:40:53;29.90;40.00
69626;DHT22;56847;51.984;5.088;2022-07-18T08:43:20;30.00;39.90
69626;DHT22;56847;51.984;5.088;2022-07-18T08:45:54;30.20;39.30
69626;DHT22;56847;51.984;5.088;2022-07-18T08:48:23;30.20;38.50
69626;DHT22;56847;51.984;5.088;2022-07-18T08:50:51;30.20;38.70
69626;DHT22;56847;51.984;5.088;2022-07-18T08:53:19;30.30;39.10
69626;DHT22;56847;51.984;5.088;2022-07-18T08:55:47;30.70;38.90
69626;DHT22;56847;51.984;5.088;2022-07-18T08:58:15;31.00;37.90
69626;DHT22;56847;51.984;5.088;2022-07-18T09:01:04;31.30;37.60
69626;DHT22;56847;51.984;5.088;2022-07-18T09:03:31;31.60;37.30
69626;DHT22;56847;51.984;5.088;2022-07-18T09:06:13;31.80;37.20
69626;DHT22;56847;51.984;5.088;2022-07-18T09:08:58;31.90;36.70
69626;DHT22;56847;51.984;5.088;2022-07-18T09:11:25;31.90;36.00
69626;DHT22;56847;51.984;5.088;2022-07-18T09:17:24;31.60;35.40
69626;DHT22;56847;51.984;5.088;2022-07-18T09:20:05;31.60;35.60
69626;DHT22;56847;51.984;5.088;2022-07-18T09:22:33;31.50;36.00
69626;DHT22;56847;51.984;5.088;2022-07-18T09:25:13;31.60;36.40
69626;DHT22;56847;51.984;5.088;2022-07-18T09:27:43;31.70;35.70
69626;DHT22;56847;51.984;5.088;2022-07-18T09:33:07;31.80;35.60
69626;DHT22;56847;51.984;5.088;2022-07-18T09:35:43;32.00;35.50
69626;DHT22;56847;51.984;5.088;2022-07-18T09:38:16;32.10;35.40
69626;DHT22;56847;51.984;5.088;2022-07-18T09:40:49;32.20;35.60
69626;DHT22;56847;51.984;5.088;2022-07-18T09:43:18;32.30;35.90
69626;DHT22;56847;51.984;5.088;2022-07-18T09:45:55;32.50;35.20
69626;DHT22;56847;51.984;5.088;2022-07-18T09:48:27;32.70;34.70
69626;DHT22;56847;51.984;5.088;2022-07-18T09:51:05;32.80;34.60
69626;DHT22;56847;51.984;5.088;2022-07-18T09:53:40;32.90;34.50
69626;DHT22;56847;51.984;5.088;2022-07-18T09:56:24;32.90;34.70
69626;DHT22;56847;51.984;5.088;2022-07-18T09:58:53;33.00;34.60
69626;DHT22;56847;51.984;5.088;2022-07-18T10:01:21;33.10;34.60
69626;DHT22;56847;51.984;5.088;2022-07-18T10:03:49;33.30;34.30
69626;DHT22;56847;51.984;5.088;2022-07-18T10:06:17;33.30;33.80
69626;DHT22;56847;51.984;5.088;2022-07-18T10:08:45;33.30;33.60
69626;DHT22;56847;51.984;5.088;2022-07-18T10:11:12;33.40;33.30
69626;DHT22;56847;51.984;5.088;2022-07-18T10:13:41;33.30;32.90
69626;DHT22;56847;51.984;5.088;2022-07-18T10:16:08;33.40;32.60
69626;DHT22;56847;51.984;5.088;2022-07-18T10:18:36;33.40;32.90
69626;DHT22;56847;51.984;5.088;2022-07-18T10:21:13;33.40;32.80
69626;DHT22;56847;51.984;5.088;2022-07-18T10:23:45;33.50;32.50
69626;DHT22;56847;51.984;5.088;2022-07-18T10:26:22;33.60;32.50
69626;DHT22;56847;51.984;5.088;2022-07-18T10:36:40;33.70;32.50
69626;DHT22;56847;51.984;5.088;2022-07-18T10:39:37;33.80;33.00
69626;DHT22;56847;51.984;5.088;2022-07-18T10:44:36;34.20;32.60
69626;DHT22;56847;51.984;5.088;2022-07-18T10:47:13;34.30;32.80
69626;DHT22;56847;51.984;5.088;2022-07-18T11:03:15;34.90;32.20
69626;DHT22;56847;51.984;5.088;2022-07-18T11:17:53;34.80;30.90
69626;DHT22;56847;51.984;5.088;2022-07-18T11:20:28;34.80;31.30
69626;DHT22;56847;51.984;5.088;2022-07-18T11:22:56;34.90;31.30
69626;DHT22;56847;51.984;5.088;2022-07-18T11:25:28;34.90;30.90
69626;DHT22;56847;51.984;5.088;2022-07-18T11:28:30;34.90;31.00
69626;DHT22;56847;51.984;5.088;2022-07-18T11:31:21;35.00;30.70
69626;DHT22;56847;51.984;5.088;2022-07-18T11:33:49;35.10;30.80
69626;DHT22;56847;51.984;5.088;2022-07-18T11:36:27;35.20;30.90
69626;DHT22;56847;51.984;5.088;2022-07-18T11:39:05;35.40;30.30
69626;DHT22;56847;51.984;5.088;2022-07-18T11:41:38;35.50;29.10
69626;DHT22;56847;51.984;5.088;2022-07-18T11:44:20;35.40;28.30
69626;DHT22;56847;51.984;5.088;2022-07-18T11:47:03;35.30;27.50
69626;DHT22;56847;51.984;5.088;2022-07-18T11:49:31;35.20;27.80
69626;DHT22;56847;51.984;5.088;2022-07-18T11:52:00;35.10;28.20
69626;DHT22;56847;51.984;5.088;2022-07-18T11:54:45;35.20;28.30
69626;DHT22;56847;51.984;5.088;2022-07-18T11:57:34;35.40;28.30
69626;DHT22;56847;51.984;5.088;2022-07-18T12:00:39;35.50;28.20
69626;DHT22;56847;51.984;5.088;2022-07-18T12:08:58;36.00;28.10
69626;DHT22;56847;51.984;5.088;2022-07-18T12:11:42;36.10;27.80
69626;DHT22;56847;51.984;5.088;2022-07-18T12:14:37;36.00;27.50
69626;DHT22;56847;51.984;5.088;2022-07-18T12:17:06;36.00;27.80
69626;DHT22;56847;51.984;5.088;2022-07-18T12:19:38;36.00;27.70
69626;DHT22;56847;51.984;5.088;2022-07-18T12:22:12;36.20;27.40
69626;DHT22;56847;51.984;5.088;2022-07-18T12:24:51;36.40;27.50
69626;DHT22;56847;51.984;5.088;2022-07-18T12:30:08;36.60;27.10
69626;DHT22;56847;51.984;5.088;2022-07-18T12:32:51;36.40;27.20
69626;DHT22;56847;51.984;5.088;2022-07-18T12:35:31;36.40;28.00
69626;DHT22;56847;51.984;5.088;2022-07-18T12:38:11;36.50;28.00
69626;DHT22;56847;51.984;5.088;2022-07-18T12:40:51;36.70;28.20
69626;DHT22;56847;51.984;5.088;2022-07-18T12:43:27;36.70;28.00
69626;DHT22;56847;51.984;5.088;2022-07-18T12:45:59;36.70;27.90
69626;DHT22;56847;51.984;5.088;2022-07-18T12:48:27;36.70;27.20
69626;DHT22;56847;51.984;5.088;2022-07-18T12:51:03;36.50;27.60
69626;DHT22;56847;51.984;5.088;2022-07-18T12:53:38;36.60;28.50
69626;DHT22;56847;51.984;5.088;2022-07-18T12:56:05;36.80;28.00
69626;DHT22;56847;51.984;5.088;2022-07-18T12:58:33;36.80;28.30
69626;DHT22;56847;51.984;5.088;2022-07-18T13:01:03;36.90;28.50
69626;DHT22;56847;51.984;5.088;2022-07-18T13:03:35;37.00;28.00
69626;DHT22;56847;51.984;5.088;2022-07-18T13:06:03;36.90;26.80
69626;DHT22;56847;51.984;5.088;2022-07-18T13:08:57;36.70;27.10
69626;DHT22;56847;51.984;5.088;2022-07-18T13:11:27;36.80;26.40
69626;DHT22;56847;51.984;5.088;2022-07-18T13:13:57;36.90;24.70
69626;DHT22;56847;51.984;5.088;2022-07-18T13:16:25;36.90;24.80
69626;DHT22;56847;51.984;5.088;2022-07-18T13:18:54;37.00;25.10
69626;DHT22;56847;51.984;5.088;2022-07-18T13:21:21;37.20;24.60
69626;DHT22;56847;51.984;5.088;2022-07-18T13:23:52;37.10;24.20
69626;DHT22;56847;51.984;5.088;2022-07-18T13:26:19;36.90;24.00
69626;DHT22;56847;51.984;5.088;2022-07-18T13:28:46;36.70;23.90
69626;DHT22;56847;51.984;5.088;2022-07-18T13:31:16;36.50;24.50
69626;DHT22;56847;51.984;5.088;2022-07-18T13:33:44;36.50;24.80
69626;DHT22;56847;51.984;5.088;2022-07-18T13:36:14;36.60;25.30
69626;DHT22;56847;51.984;5.088;2022-07-18T13:38:41;36.80;25.30
69626;DHT22;56847;51.984;5.088;2022-07-18T13:41:09;36.80;25.00
69626;DHT22;56847;51.984;5.088;2022-07-18T13:43:38;36.80;24.80
69626;DHT22;56847;51.984;5.088;2022-07-18T13:46:09;36.70;24.50
69626;DHT22;56847;51.984;5.088;2022-07-18T13:48:38;36.60;24.70
69626;DHT22;56847;51.984;5.088;2022-07-18T13:51:07;36.50;24.70
69626;DHT22;56847;51.984;5.088;2022-07-18T13:53:34;36.40;24.40
69626;DHT22;56847;51.984;5.088;2022-07-18T13:56:03;36.30;24.90
69626;DHT22;56847;51.984;5.088;2022-07-18T13:58:31;36.40;25.40
69626;DHT22;56847;51.984;5.088;2022-07-18T14:57:01;37.00;26.40
69626;DHT22;56847;51.984;5.088;2022-07-18T15:24:33;37.30;26.50
69626;DHT22;56847;51.984;5.088;2022-07-18T15:27:02;37.20;26.80
69626;DHT22;56847;51.984;5.088;2022-07-18T15:29:32;37.20;26.80
69626;DHT22;56847;51.984;5.088;2022-07-18T15:31:59;37.30;27.00
69626;DHT22;56847;51.984;5.088;2022-07-18T15:34:26;37.40;27.10
69626;DHT22;56847;51.984;5.088;2022-07-18T15:36:53;37.50;26.50
69626;DHT22;56847;51.984;5.088;2022-07-18T15:39:23;37.50;26.20
69626;DHT22;56847;51.984;5.088;2022-07-18T15:41:57;37.50;26.40
69626;DHT22;56847;51.984;5.088;2022-07-18T15:44:32;37.50;26.10
69626;DHT22;56847;51.984;5.088;2022-07-18T15:50:16;37.30;26.20
69626;DHT22;56847;51.984;5.088;2022-07-18T15:52:43;37.30;26.70
69626;DHT22;56847;51.984;5.088;2022-07-18T15:55:10;37.40;26.60
69626;DHT22;56847;51.984;5.088;2022-07-18T15:57:38;37.50;26.50
69626;DHT22;56847;51.984;5.088;2022-07-18T16:00:07;37.70;26.50
69626;DHT22;56847;51.984;5.088;2022-07-18T16:02:43;37.80;26.20
69626;DHT22;56847;51.984;5.088;2022-07-18T16:05:10;37.80;26.40
69626;DHT22;56847;51.984;5.088;2022-07-18T16:07:37;37.80;26.30
69626;DHT22;56847;51.984;5.088;2022-07-18T16:10:04;37.90;26.20
69626;DHT22;56847;51.984;5.088;2022-07-18T16:12:31;38.00;26.30
69626;DHT22;56847;51.984;5.088;2022-07-18T16:15:12;38.20;26.40
69626;DHT22;56847;51.984;5.088;2022-07-18T16:17:39;38.50;26.10
69626;DHT22;56847;51.984;5.088;2022-07-18T16:20:07;38.50;25.80
69626;DHT22;56847;51.984;5.088;2022-07-18T16:22:39;38.60;25.80
69626;DHT22;56847;51.984;5.088;2022-07-18T16:25:07;38.60;25.90
69626;DHT22;56847;51.984;5.088;2022-07-18T16:27:35;38.70;25.70
69626;DHT22;56847;51.984;5.088;2022-07-18T16:30:04;38.90;25.80
69626;DHT22;56847;51.984;5.088;2022-07-18T16:32:40;39.20;25.60
69626;DHT22;56847;51.984;5.088;2022-07-18T16:41:37;39.60;25.10
69626;DHT22;56847;51.984;5.088;2022-07-18T16:53:35;40.50;24.40
69626;DHT22;56847;51.984;5.088;2022-07-18T16:56:04;40.50;24.20
69626;DHT22;56847;51.984;5.088;2022-07-18T16:58:50;40.70;24.40
69626;DHT22;56847;51.984;5.088;2022-07-18T17:01:50;40.90;24.30
69626;DHT22;56847;51.984;5.088;2022-07-18T17:04:42;41.30;24.10
69626;DHT22;56847;51.984;5.088;2022-07-18T17:07:14;41.30;24.10
69626;DHT22;56847;51.984;5.088;2022-07-18T17:09:48;41.40;24.10
69626;DHT22;56847;51.984;5.088;2022-07-18T17:12:18;41.60;24.20
69626;DHT22;56847;51.984;5.088;2022-07-18T17:15:02;41.90;24.00
69626;DHT22;56847;51.984;5.088;2022-07-18T17:17:31;42.30;23.40
69626;DHT22;56847;51.984;5.088;2022-07-18T17:20:02;42.50;23.50
69626;DHT22;56847;51.984;5.088;2022-07-18T17:22:29;43.00;23.30
69626;DHT22;56847;51.984;5.088;2022-07-18T17:25:04;43.30;23.00
69626;DHT22;56847;51.984;5.088;2022-07-18T17:27:33;43.40;23.00
69626;DHT22;56847;51.984;5.088;2022-07-18T17:30:02;43.50;23.00
69626;DHT22;56847;51.984;5.088;2022-07-18T17:32:30;43.90;22.50
69626;DHT22;56847;51.984;5.088;2022-07-18T17:35:02;44.20;22.40
69626;DHT22;56847;51.984;5.088;2022-07-18T17:37:45;44.50;22.10
69626;DHT22;56847;51.984;5.088;2022-07-18T17:43:46;45.10;21.30
69626;DHT22;56847;51.984;5.088;2022-07-18T17:46:31;45.50;21.90
69626;DHT22;56847;51.984;5.088;2022-07-18T17:49:18;45.90;21.50
69626;DHT22;56847;51.984;5.088;2022-07-18T17:52:02;46.30;21.10
69626;DHT22;56847;51.984;5.088;2022-07-18T17:54:30;46.60;20.80
69626;DHT22;56847;51.984;5.088;2022-07-18T17:57:01;46.50;20.80
69626;DHT22;56847;51.984;5.088;2022-07-18T17:59:35;46.40;21.00
69626;DHT22;56847;51.984;5.088;2022-07-18T18:02:03;46.50;20.50
69626;DHT22;56847;51.984;5.088;2022-07-18T18:04:34;46.30;20.30
69626;DHT22;56847;51.984;5.088;2022-07-18T18:07:03;45.70;21.50
69626;DHT22;56847;51.984;5.088;2022-07-18T18:09:36;45.00;23.30
69626;DHT22;56847;51.984;5.088;2022-07-18T18:12:40;44.20;22.10
69626;DHT22;56847;51.984;5.088;2022-07-18T18:18:18;42.10;23.40
69626;DHT22;56847;51.984;5.088;2022-07-18T18:20:46;41.30;24.30
69626;DHT22;56847;51.984;5.088;2022-07-18T18:23:16;40.80;24.10
69626;DHT22;56847;51.984;5.088;2022-07-18T18:25:53;40.30;24.80
69626;DHT22;56847;51.984;5.088;2022-07-18T18:28:57;39.90;25.10
69626;DHT22;56847;51.984;5.088;2022-07-18T18:31:54;39.40;24.90
69626;DHT22;56847;51.984;5.088;2022-07-18T18:34:22;39.00;25.70
69626;DHT22;56847;51.984;5.088;2022-07-18T18:36:50;38.70;25.50
69626;DHT22;56847;51.984;5.088;2022-07-18T18:39:28;38.40;26.00
69626;DHT22;56847;51.984;5.088;2022-07-18T18:41:59;38.10;26.20
69626;DHT22;56847;51.984;5.088;2022-07-18T18:44:27;37.80;27.50
69626;DHT22;56847;51.984;5.088;2022-07-18T18:46:58;37.60;27.90
69626;DHT22;56847;51.984;5.088;2022-07-18T18:49:27;37.40;28.30
69626;DHT22;56847;51.984;5.088;2022-07-18T18:52:01;37.20;29.00
69626;DHT22;56847;51.984;5.088;2022-07-18T18:54:46;37.00;29.80
69626;DHT22;56847;51.984;5.088;2022-07-18T18:57:13;36.80;30.60
69626;DHT22;56847;51.984;5.088;2022-07-18T18:59:40;36.60;31.20
69626;DHT22;56847;51.984;5.088;2022-07-18T19:02:07;36.50;31.40
69626;DHT22;56847;51.984;5.088;2022-07-18T19:04:35;36.30;31.70
69626;DHT22;56847;51.984;5.088;2022-07-18T19:07:02;36.10;32.30
69626;DHT22;56847;51.984;5.088;2022-07-18T19:09:29;35.90;32.40
69626;DHT22;56847;51.984;5.088;2022-07-18T19:11:56;35.80;32.60
69626;DHT22;56847;51.984;5.088;2022-07-18T19:14:23;35.60;32.70
69626;DHT22;56847;51.984;5.088;2022-07-18T19:16:50;35.50;32.80
69626;DHT22;56847;51.984;5.088;2022-07-18T19:19:18;35.30;33.10
69626;DHT22;56847;51.984;5.088;2022-07-18T19:21:45;35.20;33.20
69626;DHT22;56847;51.984;5.088;2022-07-18T19:24:12;35.10;33.40
69626;DHT22;56847;51.984;5.088;2022-07-18T19:26:39;34.90;33.40
69626;DHT22;56847;51.984;5.088;2022-07-18T19:29:06;34.80;33.70
69626;DHT22;56847;51.984;5.088;2022-07-18T19:31:33;34.70;33.90
69626;DHT22;56847;51.984;5.088;2022-07-18T19:34:08;34.60;34.40
69626;DHT22;56847;51.984;5.088;2022-07-18T19:36:35;34.40;34.60
69626;DHT22;56847;51.984;5.088;2022-07-18T19:39:03;34.30;34.70
69626;DHT22;56847;51.984;5.088;2022-07-18T19:41:35;34.20;34.80
69626;DHT22;56847;51.984;5.088;2022-07-18T19:44:06;34.10;35.30
69626;DHT22;56847;51.984;5.088;2022-07-18T19:46:33;33.90;35.00
69626;DHT22;56847;51.984;5.088;2022-07-18T19:49:05;33.80;35.10
69626;DHT22;56847;51.984;5.088;2022-07-18T19:51:33;33.70;35.10
69626;DHT22;56847;51.984;5.088;2022-07-18T19:54:01;33.60;35.10
69626;DHT22;56847;51.984;5.088;2022-07-18T19:56:28;33.50;35.20
69626;DHT22;56847;51.984;5.088;2022-07-18T19:58:56;33.40;35.30
69626;DHT22;56847;51.984;5.088;2022-07-18T20:01:23;33.30;35.40
69626;DHT22;56847;51.984;5.088;2022-07-18T20:03:51;33.20;35.60
69626;DHT22;56847;51.984;5.088;2022-07-18T20:06:18;33.10;36.00
69626;DHT22;56847;51.984;5.088;2022-07-18T20:08:45;33.00;36.00
69626;DHT22;56847;51.984;5.088;2022-07-18T20:11:13;32.90;36.10
69626;DHT22;56847;51.984;5.088;2022-07-18T20:13:40;32.80;36.20
69626;DHT22;56847;51.984;5.088;2022-07-18T20:16:07;32.70;36.40
69626;DHT22;56847;51.984;5.088;2022-07-18T20:18:34;32.60;36.50
69626;DHT22;56847;51.984;5.088;2022-07-18T20:21:02;32.50;36.70
69626;DHT22;56847;51.984;5.088;2022-07-18T20:23:29;32.40;36.80
69626;DHT22;56847;51.984;5.088;2022-07-18T20:25:56;32.40;36.90
69626;DHT22;56847;51.984;5.088;2022-07-18T20:28:23;32.30;36.80
69626;DHT22;56847;51.984;5.088;2022-07-18T20:30:50;32.20;37.00
69626;DHT22;56847;51.984;5.088;2022-07-18T20:33:20;32.10;37.00
69626;DHT22;56847;51.984;5.088;2022-07-18T20:35:47;32.00;37.20
69626;DHT22;56847;51.984;5.088;2022-07-18T20:38:13;32.00;37.30
69626;DHT22;56847;51.984;5.088;2022-07-18T20:40:41;31.90;37.40
69626;DHT22;56847;51.984;5.088;2022-07-18T20:43:08;31.80;37.60
69626;DHT22;56847;51.984;5.088;2022-07-18T20:45:34;31.80;37.80
69626;DHT22;56847;51.984;5.088;2022-07-18T20:48:02;31.70;37.90
69626;DHT22;56847;51.984;5.088;2022-07-18T20:50:29;31.60;37.90
69626;DHT22;56847;51.984;5.088;2022-07-18T20:52:57;31.50;38.10
69626;DHT22;56847;51.984;5.088;2022-07-18T20:55:24;31.50;38.20
69626;DHT22;56847;51.984;5.088;2022-07-18T20:57:51;31.40;38.20
69626;DHT22;56847;51.984;5.088;2022-07-18T21:00:19;31.30;38.40
69626;DHT22;56847;51.984;5.088;2022-07-18T21:02:47;31.30;38.60
69626;DHT22;56847;51.984;5.088;2022-07-18T21:05:14;31.20;38.60
69626;DHT22;56847;51.984;5.088;2022-07-18T21:07:41;31.10;38.90
69626;DHT22;56847;51.984;5.088;2022-07-18T21:10:10;31.10;38.90
69626;DHT22;56847;51.984;5.088;2022-07-18T21:21:22;30.80;39.00
69626;DHT22;56847;51.984;5.088;2022-07-18T21:23:53;30.80;39.20
69626;DHT22;56847;51.984;5.088;2022-07-18T21:26:23;30.70;39.30
69626;DHT22;56847;51.984;5.088;2022-07-18T21:28:52;30.70;39.40
69626;DHT22;56847;51.984;5.088;2022-07-18T21:31:21;30.60;39.50
69626;DHT22;56847;51.984;5.088;2022-07-18T21:33:48;30.50;39.70
69626;DHT22;56847;51.984;5.088;2022-07-18T21:36:16;30.50;39.80
69626;DHT22;56847;51.984;5.088;2022-07-18T21:38:46;30.40;39.70
69626;DHT22;56847;51.984;5.088;2022-07-18T21:41:14;30.40;39.50
69626;DHT22;56847;51.984;5.088;2022-07-18T21:43:49;30.30;39.50
69626;DHT22;56847;51.984;5.088;2022-07-18T21:46:24;30.30;39.70
69626;DHT22;56847;51.984;5.088;2022-07-18T21:48:54;30.30;40.00
69626;DHT22;56847;51.984;5.088;2022-07-18T21:51:22;30.20;40.10
69626;DHT22;56847;51.984;5.088;2022-07-18T21:53:50;30.20;40.30
69626;DHT22;56847;51.984;5.088;2022-07-18T21:56:18;30.10;40.40
69626;DHT22;56847;51.984;5.088;2022-07-18T21:58:45;30.10;40.50
69626;DHT22;56847;51.984;5.088;2022-07-18T22:01:13;30.00;40.40
69626;DHT22;56847;51.984;5.088;2022-07-18T22:03:40;30.00;40.50
69626;DHT22;56847;51.984;5.088;2022-07-18T22:06:08;29.90;40.60
69626;DHT22;56847;51.984;5.088;2022-07-18T22:08:42;29.90;40.70
69626;DHT22;56847;51.984;5.088;2022-07-18T22:11:10;29.80;40.80
69626;DHT22;56847;51.984;5.088;2022-07-18T22:13:38;29.70;41.00
69626;DHT22;56847;51.984;5.088;2022-07-18T22:16:06;29.70;41.00
69626;DHT22;56847;51.984;5.088;2022-07-18T22:18:33;29.60;41.10
69626;DHT22;56847;51.984;5.088;2022-07-18T22:21:03;29.50;41.50
69626;DHT22;56847;51.984;5.088;2022-07-18T22:23:31;29.50;41.60
69626;DHT22;56847;51.984;5.088;2022-07-18T22:25:58;29.40;41.70
69626;DHT22;56847;51.984;5.088;2022-07-18T22:28:27;29.40;41.90
69626;DHT22;56847;51.984;5.088;2022-07-18T22:30:59;29.30;42.00
69626;DHT22;56847;51.984;5.088;2022-07-18T22:33:27;29.30;42.00
69626;DHT22;56847;51.984;5.088;2022-07-18T22:35:55;29.20;42.20
69626;DHT22;56847;51.984;5.088;2022-07-18T22:38:23;29.20;42.30
69626;DHT22;56847;51.984;5.088;2022-07-18T22:40:53;29.10;42.50
69626;DHT22;56847;51.984;5.088;2022-07-18T22:43:20;29.00;42.50
69626;DHT22;56847;51.984;5.088;2022-07-18T22:45:48;29.00;42.70
69626;DHT22;56847;51.984;5.088;2022-07-18T22:48:18;29.00;43.10
69626;DHT22;56847;51.984;5.088;2022-07-18T22:50:53;28.80;43.20
69626;DHT22;56847;51.984;5.088;2022-07-18T22:53:21;28.80;43.20
69626;DHT22;56847;51.984;5.088;2022-07-18T22:55:50;28.70;43.20
69626;DHT22;56847;51.984;5.088;2022-07-18T22:58:18;28.70;43.30
69626;DHT22;56847;51.984;5.088;2022-07-18T23:00:48;28.70;43.40
69626;DHT22;56847;51.984;5.088;2022-07-18T23:03:16;28.60;43.60
69626;DHT22;56847;51.984;5.088;2022-07-18T23:05:46;28.60;43.70
69626;DHT22;56847;51.984;5.088;2022-07-18T23:08:20;28.50;43.80
69626;DHT22;56847;51.984;5.088;2022-07-18T23:10:47;28.50;43.90
69626;DHT22;56847;51.984;5.088;2022-07-18T23:13:15;28.40;44.20
69626;DHT22;56847;51.984;5.088;2022-07-18T23:15:44;28.40;44.20
69626;DHT22;56847;51.984;5.088;2022-07-18T23:18:12;28.30;44.40